sensor_id;sensor_type;location;lat;lon;timestamp;P1;durP1;ratioP1;P2;durP2;ratioP2
34489;SDS011;20730;49.372;7.324;2023-12-22T00:01:14;8.07;;;1.10;;
34489;SDS011;20730;49.372;7.324;2023-12-22T00:04:04;7.82;;;1.08;;
34489;SDS011;20730;49.372;7.324;2023-12-22T00:06:36;4.53;;;0.80;;
34489;SDS011;20730;49.372;7.324;2023-12-22T00:09:32;6.35;;;1.13;;
34489;SDS011;20730;49.372;7.324;2023-12-22T00:12:09;5.28;;;1.15;;
34489;SDS011;20730;49.372;7.324;2023-12-22T00:14:55;9.90;;;1.17;;
34489;SDS011;20730;49.372;7.324;2023-12-22T00:18:03;6.70;;;1.00;;
34489;SDS011;20730;49.372;7.324;2023-12-22T00:20:45;3.42;;;0.95;;
34489;SDS011;20730;49.372;7.324;2023-12-22T00:23:20;6.40;;;1.00;;
34489;SDS011;20730;49.372;7.324;2023-12-22T00:26:07;7.10;;;0.90;;
34489;SDS011;20730;49.372;7.324;2023-12-22T00:28:56;10.68;;;1.50;;
34489;SDS011;20730;49.372;7.324;2023-12-22T00:31:33;5.68;;;0.93;;
34489;SDS011;20730;49.372;7.324;2023-12-22T00:34:35;6.68;;;1.17;;
34489;SDS011;20730;49.372;7.324;2023-12-22T00:37:21;5.45;;;0.80;;
34489;SDS011;20730;49.372;7.324;2023-12-22T00:39:54;5.57;;;1.10;;
34489;SDS011;20730;49.372;7.324;2023-12-22T00:42:51;5.68;;;0.90;;
34489;SDS011;20730;49.372;7.324;2023-12-22T00:45:35;6.47;;;1.05;;
34489;SDS011;20730;49.372;7.324;2023-12-22T00:48:25;6.50;;;1.17;;
34489;SDS011;20730;49.372;7.324;2023-12-22T00:54:03;5.50;;;0.95;;
34489;SDS011;20730;49.372;7.324;2023-12-22T00:56:39;4.78;;;1.05;;
34489;SDS011;20730;49.372;7.324;2023-12-22T00:59:18;5.00;;;1.33;;
34489;SDS011;20730;49.372;7.324;2023-12-22T01:02:13;8.00;;;0.98;;
34489;SDS011;20730;49.372;7.324;2023-12-22T01:05:19;4.20;;;1.02;;
34489;SDS011;20730;49.372;7.324;2023-12-22T01:08:12;2.97;;;0.80;;
34489;SDS011;20730;49.372;7.324;2023-12-22T01:11:01;2.58;;;0.60;;
34489;SDS011;20730;49.372;7.324;2023-12-22T01:13:58;9.05;;;1.27;;
34489;SDS011;20730;49.372;7.324;2023-12-22T01:16:52;6.53;;;1.00;;
34489;SDS011;20730;49.372;7.324;2023-12-22T01:19:28;7.53;;;1.02;;
34489;SDS011;20730;49.372;7.324;2023-12-22T01:22:19;6.88;;;1.10;;
34489;SDS011;20730;49.372;7.324;2023-12-22T01:25:07;5.78;;;1.13;;
34489;SDS011;20730;49.372;7.324;2023-12-22T01:27:48;5.88;;;1.17;;
34489;SDS011;20730;49.372;7.324;2023-12-22T01:30:25;8.95;;;1.10;;
34489;SDS011;20730;49.372;7.324;2023-12-22T01:33:07;7.15;;;1.52;;
34489;SDS011;20730;49.372;7.324;2023-12-22T01:35:46;6.13;;;1.00;;
34489;SDS011;20730;49.372;7.324;2023-12-22T01:38:29;8.40;;;1.35;;
34489;SDS011;20730;49.372;7.324;2023-12-22T01:41:17;11.05;;;1.30;;
34489;SDS011;20730;49.372;7.324;2023-12-22T01:43:57;5.93;;;1.17;;
34489;SDS011;20730;49.372;7.324;2023-12-22T01:46:37;6.63;;;1.00;;
34489;SDS011;20730;49.372;7.324;2023-12-22T01:49:14;7.57;;;1.25;;
34489;SDS011;20730;49.372;7.324;2023-12-22T01:51:48;6.32;;;1.45;;
34489;SDS011;20730;49.372;7.324;2023-12-22T01:54:27;7.22;;;1.52;;
34489;SDS011;20730;49.372;7.324;2023-12-22T01:56:58;6.70;;;1.33;;
34489;SDS011;20730;49.372;7.324;2023-12-22T01:59:48;7.43;;;1.15;;
34489;SDS011;20730;49.372;7.324;2023-12-22T02:02:25;8.82;;;1.02;;
34489;SDS011;20730;49.372;7.324;2023-12-22T02:05:02;9.15;;;1.10;;
34489;SDS011;20730;49.372;7.324;2023-12-22T02:13:11;5.40;;;1.80;;
34489;SDS011;20730;49.372;7.324;2023-12-22T02:15:46;6.90;;;1.60;;
34489;SDS011;20730;49.372;7.324;2023-12-22T02:18:35;7.10;;;1.40;;
34489;SDS011;20730;49.372;7.324;2023-12-22T02:21:24;3.88;;;0.80;;
34489;SDS011;20730;49.372;7.324;2023-12-22T02:24:05;5.53;;;1.20;;
34489;SDS011;20730;49.372;7.324;2023-12-22T02:26:39;7.20;;;1.40;;
34489;SDS011;20730;49.372;7.324;2023-12-22T02:29:19;17.92;;;1.48;;
34489;SDS011;20730;49.372;7.324;2023-12-22T02:32:12;6.10;;;1.48;;
34489;SDS011;20730;49.372;7.324;2023-12-22T02:35:19;8.85;;;1.30;;
34489;SDS011;20730;49.372;7.324;2023-12-22T02:38:01;7.82;;;1.45;;
34489;SDS011;20730;49.372;7.324;2023-12-22T02:40:53;5.20;;;1.38;;
34489;SDS011;20730;49.372;7.324;2023-12-22T02:43:36;8.93;;;1.73;;
34489;SDS011;20730;49.372;7.324;2023-12-22T02:46:21;6.60;;;1.42;;
34489;SDS011;20730;49.372;7.324;2023-12-22T02:49:00;6.22;;;1.30;;
34489;SDS011;20730;49.372;7.324;2023-12-22T02:51:31;7.68;;;1.13;;
34489;SDS011;20730;49.372;7.324;2023-12-22T02:54:08;6.18;;;1.25;;
34489;SDS011;20730;49.372;7.324;2023-12-22T02:57:05;9.32;;;1.60;;
34489;SDS011;20730;49.372;7.324;2023-12-22T02:59:50;5.68;;;1.25;;
34489;SDS011;20730;49.372;7.324;2023-12-22T03:02:27;7.95;;;1.23;;
34489;SDS011;20730;49.372;7.324;2023-12-22T03:05:03;10.88;;;2.13;;
34489;SDS011;20730;49.372;7.324;2023-12-22T03:07:44;3.13;;;0.85;;
34489;SDS011;20730;49.372;7.324;2023-12-22T03:10:28;6.25;;;1.30;;
34489;SDS011;20730;49.372;7.324;2023-12-22T03:13:04;7.05;;;1.25;;
34489;SDS011;20730;49.372;7.324;2023-12-22T03:15:53;6.97;;;1.23;;
34489;SDS011;20730;49.372;7.324;2023-12-22T03:18:48;10.63;;;1.55;;
34489;SDS011;20730;49.372;7.324;2023-12-22T03:21:30;8.20;;;1.13;;
34489;SDS011;20730;49.372;7.324;2023-12-22T03:24:30;7.80;;;1.23;;
34489;SDS011;20730;49.372;7.324;2023-12-22T03:26:58;4.85;;;1.13;;
34489;SDS011;20730;49.372;7.324;2023-12-22T03:29:46;8.38;;;1.60;;
34489;SDS011;20730;49.372;7.324;2023-12-22T03:32:27;4.13;;;0.98;;
34489;SDS011;20730;49.372;7.324;2023-12-22T03:35:18;8.65;;;1.17;;
34489;SDS011;20730;49.372;7.324;2023-12-22T03:37:57;7.40;;;1.20;;
34489;SDS011;20730;49.372;7.324;2023-12-22T03:40:47;7.75;;;1.50;;
34489;SDS011;20730;49.372;7.324;2023-12-22T03:43:38;3.88;;;1.02;;
34489;SDS011;20730;49.372;7.324;2023-12-22T03:46:19;7.13;;;0.60;;
34489;SDS011;20730;49.372;7.324;2023-12-22T03:52:08;5.05;;;0.85;;
34489;SDS011;20730;49.372;7.324;2023-12-22T03:54:46;4.35;;;1.02;;
34489;SDS011;20730;49.372;7.324;2023-12-22T03:57:36;4.05;;;0.60;;
34489;SDS011;20730;49.372;7.324;2023-12-22T04:00:30;4.22;;;1.35;;
34489;SDS011;20730;49.372;7.324;2023-12-22T04:03:31;4.18;;;0.80;;
34489;SDS011;20730;49.372;7.324;2023-12-22T04:06:33;7.60;;;1.10;;
34489;SDS011;20730;49.372;7.324;2023-12-22T04:09:23;7.15;;;0.90;;
34489;SDS011;20730;49.372;7.324;2023-12-22T04:11:54;5.47;;;1.00;;
34489;SDS011;20730;49.372;7.324;2023-12-22T04:14:48;9.07;;;1.48;;
34489;SDS011;20730;49.372;7.324;2023-12-22T04:17:37;6.25;;;0.95;;
34489;SDS011;20730;49.372;7.324;2023-12-22T04:20:21;6.18;;;1.20;;
34489;SDS011;20730;49.372;7.324;2023-12-22T04:22:55;5.75;;;1.35;;
34489;SDS011;20730;49.372;7.324;2023-12-22T04:25:31;4.78;;;1.02;;
34489;SDS011;20730;49.372;7.324;2023-12-22T04:28:05;8.20;;;1.42;;
34489;SDS011;20730;49.372;7.324;2023-12-22T04:30:47;12.73;;;2.03;;
34489;SDS011;20730;49.372;7.324;2023-12-22T04:33:33;12.25;;;1.88;;
34489;SDS011;20730;49.372;7.324;2023-12-22T04:36:51;9.32;;;1.48;;
34489;SDS011;20730;49.372;7.324;2023-12-22T04:39:31;12.70;;;1.63;;
34489;SDS011;20730;49.372;7.324;2023-12-22T04:42:07;14.25;;;2.05;;
34489;SDS011;20730;49.372;7.324;2023-12-22T04:44:48;9.05;;;1.63;;
34489;SDS011;20730;49.372;7.324;2023-12-22T04:50:15;9.23;;;1.77;;
34489;SDS011;20730;49.372;7.324;2023-12-22T04:52:49;11.38;;;1.98;;
34489;SDS011;20730;49.372;7.324;2023-12-22T04:55:38;13.52;;;2.40;;
34489;SDS011;20730;49.372;7.324;2023-12-22T04:58:26;7.93;;;1.80;;
34489;SDS011;20730;49.372;7.324;2023-12-22T05:01:25;10.35;;;1.70;;
34489;SDS011;20730;49.372;7.324;2023-12-22T05:04:08;12.95;;;1.50;;
34489;SDS011;20730;49.372;7.324;2023-12-22T05:06:55;15.63;;;2.53;;
34489;SDS011;20730;49.372;7.324;2023-12-22T05:09:43;16.02;;;2.22;;
34489;SDS011;20730;49.372;7.324;2023-12-22T05:12:21;8.68;;;1.67;;
34489;SDS011;20730;49.372;7.324;2023-12-22T05:14:57;6.28;;;1.67;;
34489;SDS011;20730;49.372;7.324;2023-12-22T05:17:45;10.23;;;2.10;;
34489;SDS011;20730;49.372;7.324;2023-12-22T05:23:42;15.50;;;1.83;;
34489;SDS011;20730;49.372;7.324;2023-12-22T05:26:35;5.07;;;1.42;;
34489;SDS011;20730;49.372;7.324;2023-12-22T05:29:12;8.88;;;1.55;;
34489;SDS011;20730;49.372;7.324;2023-12-22T05:32:09;8.90;;;1.63;;
34489;SDS011;20730;49.372;7.324;2023-12-22T05:34:38;10.75;;;1.58;;
34489;SDS011;20730;49.372;7.324;2023-12-22T05:37:46;12.60;;;2.05;;
34489;SDS011;20730;49.372;7.324;2023-12-22T05:40:49;9.70;;;1.83;;
34489;SDS011;20730;49.372;7.324;2023-12-22T05:43:23;8.77;;;1.65;;
34489;SDS011;20730;49.372;7.324;2023-12-22T05:46:04;7.32;;;1.27;;
34489;SDS011;20730;49.372;7.324;2023-12-22T05:48:40;5.95;;;1.10;;
34489;SDS011;20730;49.372;7.324;2023-12-22T05:51:34;6.88;;;0.95;;
34489;SDS011;20730;49.372;7.324;2023-12-22T05:54:29;4.82;;;1.00;;
34489;SDS011;20730;49.372;7.324;2023-12-22T05:57:05;4.93;;;0.90;;
34489;SDS011;20730;49.372;7.324;2023-12-22T05:59:45;5.25;;;1.10;;
34489;SDS011;20730;49.372;7.324;2023-12-22T06:02:37;4.90;;;1.00;;
34489;SDS011;20730;49.372;7.324;2023-12-22T06:05:11;4.22;;;1.20;;
34489;SDS011;20730;49.372;7.324;2023-12-22T06:07:58;5.30;;;0.90;;
34489;SDS011;20730;49.372;7.324;2023-12-22T06:10:43;4.25;;;1.30;;
34489;SDS011;20730;49.372;7.324;2023-12-22T06:13:30;2.90;;;0.55;;
34489;SDS011;20730;49.372;7.324;2023-12-22T06:16:10;6.35;;;0.90;;
34489;SDS011;20730;49.372;7.324;2023-12-22T06:21:36;3.00;;;0.50;;
34489;SDS011;20730;49.372;7.324;2023-12-22T06:24:34;4.28;;;0.55;;
34489;SDS011;20730;49.372;7.324;2023-12-22T06:27:19;3.58;;;1.00;;
34489;SDS011;20730;49.372;7.324;2023-12-22T06:30:14;5.05;;;1.08;;
34489;SDS011;20730;49.372;7.324;2023-12-22T06:32:52;4.53;;;0.80;;
34489;SDS011;20730;49.372;7.324;2023-12-22T06:35:38;2.15;;;0.57;;
34489;SDS011;20730;49.372;7.324;2023-12-22T06:38:48;1.95;;;0.60;;
34489;SDS011;20730;49.372;7.324;2023-12-22T06:42:19;4.85;;;0.75;;
34489;SDS011;20730;49.372;7.324;2023-12-22T06:44:59;3.83;;;0.80;;
34489;SDS011;20730;49.372;7.324;2023-12-22T06:47:34;5.45;;;0.98;;
34489;SDS011;20730;49.372;7.324;2023-12-22T06:50:17;4.97;;;1.08;;
34489;SDS011;20730;49.372;7.324;2023-12-22T06:53:00;4.57;;;1.05;;
34489;SDS011;20730;49.372;7.324;2023-12-22T06:55:55;7.40;;;1.10;;
34489;SDS011;20730;49.372;7.324;2023-12-22T06:58:33;6.18;;;1.23;;
34489;SDS011;20730;49.372;7.324;2023-12-22T07:01:55;6.50;;;2.05;;
34489;SDS011;20730;49.372;7.324;2023-12-22T07:08:03;8.88;;;3.05;;
34489;SDS011;20730;49.372;7.324;2023-12-22T07:11:21;9.45;;;2.38;;
34489;SDS011;20730;49.372;7.324;2023-12-22T07:14:54;10.48;;;2.72;;
34489;SDS011;20730;49.372;7.324;2023-12-22T07:17:33;11.48;;;4.30;;
34489;SDS011;20730;49.372;7.324;2023-12-22T07:20:23;12.43;;;2.13;;
34489;SDS011;20730;49.372;7.324;2023-12-22T07:22:57;10.48;;;1.73;;
34489;SDS011;20730;49.372;7.324;2023-12-22T07:25:47;9.80;;;1.70;;
34489;SDS011;20730;49.372;7.324;2023-12-22T07:28:21;7.85;;;1.48;;
34489;SDS011;20730;49.372;7.324;2023-12-22T07:30:57;9.82;;;1.58;;
34489;SDS011;20730;49.372;7.324;2023-12-22T07:33:37;16.63;;;2.58;;
34489;SDS011;20730;49.372;7.324;2023-12-22T07:36:08;12.93;;;2.47;;
34489;SDS011;20730;49.372;7.324;2023-12-22T07:38:55;16.50;;;2.50;;
34489;SDS011;20730;49.372;7.324;2023-12-22T07:41:42;5.80;;;1.35;;
34489;SDS011;20730;49.372;7.324;2023-12-22T07:44:26;14.82;;;2.50;;
34489;SDS011;20730;49.372;7.324;2023-12-22T07:47:03;12.73;;;1.80;;
34489;SDS011;20730;49.372;7.324;2023-12-22T07:49:43;10.32;;;2.30;;
34489;SDS011;20730;49.372;7.324;2023-12-22T07:52:38;16.73;;;2.33;;
34489;SDS011;20730;49.372;7.324;2023-12-22T07:55:26;13.40;;;2.35;;
34489;SDS011;20730;49.372;7.324;2023-12-22T07:58:31;13.07;;;2.40;;
34489;SDS011;20730;49.372;7.324;2023-12-22T08:01:21;12.20;;;2.35;;
34489;SDS011;20730;49.372;7.324;2023-12-22T08:04:07;17.73;;;3.05;;
34489;SDS011;20730;49.372;7.324;2023-12-22T08:07:07;23.38;;;3.20;;
34489;SDS011;20730;49.372;7.324;2023-12-22T08:09:53;21.77;;;3.00;;
34489;SDS011;20730;49.372;7.324;2023-12-22T08:13:02;17.70;;;2.90;;
34489;SDS011;20730;49.372;7.324;2023-12-22T08:15:53;16.60;;;2.63;;
34489;SDS011;20730;49.372;7.324;2023-12-22T08:18:49;20.52;;;2.78;;
34489;SDS011;20730;49.372;7.324;2023-12-22T08:21:59;22.63;;;3.83;;
34489;SDS011;20730;49.372;7.324;2023-12-22T08:24:40;19.65;;;2.78;;
34489;SDS011;20730;49.372;7.324;2023-12-22T08:27:40;22.33;;;4.40;;
34489;SDS011;20730;49.372;7.324;2023-12-22T08:30:38;19.10;;;3.13;;
34489;SDS011;20730;49.372;7.324;2023-12-22T08:33:38;22.40;;;2.95;;
34489;SDS011;20730;49.372;7.324;2023-12-22T08:36:53;16.47;;;3.17;;
34489;SDS011;20730;49.372;7.324;2023-12-22T08:39:42;21.50;;;3.88;;
34489;SDS011;20730;49.372;7.324;2023-12-22T08:42:30;19.92;;;3.45;;
34489;SDS011;20730;49.372;7.324;2023-12-22T08:45:12;27.88;;;3.58;;
34489;SDS011;20730;49.372;7.324;2023-12-22T08:47:52;20.88;;;3.47;;
34489;SDS011;20730;49.372;7.324;2023-12-22T08:50:38;25.60;;;5.95;;
34489;SDS011;20730;49.372;7.324;2023-12-22T08:53:34;22.83;;;3.05;;
34489;SDS011;20730;49.372;7.324;2023-12-22T08:56:33;24.73;;;3.53;;
34489;SDS011;20730;49.372;7.324;2023-12-22T08:59:10;25.95;;;4.18;;
34489;SDS011;20730;49.372;7.324;2023-12-22T09:01:44;21.80;;;2.63;;
34489;SDS011;20730;49.372;7.324;2023-12-22T09:04:56;17.35;;;3.65;;
34489;SDS011;20730;49.372;7.324;2023-12-22T09:07:54;17.05;;;3.13;;
34489;SDS011;20730;49.372;7.324;2023-12-22T09:11:02;17.95;;;3.05;;
34489;SDS011;20730;49.372;7.324;2023-12-22T09:13:42;18.15;;;3.33;;
34489;SDS011;20730;49.372;7.324;2023-12-22T09:16:32;23.23;;;3.70;;
34489;SDS011;20730;49.372;7.324;2023-12-22T09:22:18;22.05;;;3.67;;
34489;SDS011;20730;49.372;7.324;2023-12-22T09:25:03;22.88;;;3.42;;
34489;SDS011;20730;49.372;7.324;2023-12-22T09:28:00;19.83;;;3.05;;
34489;SDS011;20730;49.372;7.324;2023-12-22T09:30:47;15.70;;;2.83;;
34489;SDS011;20730;49.372;7.324;2023-12-22T09:36:08;24.80;;;3.22;;
34489;SDS011;20730;49.372;7.324;2023-12-22T09:39:04;25.85;;;3.40;;
34489;SDS011;20730;49.372;7.324;2023-12-22T09:41:53;17.20;;;2.90;;
34489;SDS011;20730;49.372;7.324;2023-12-22T09:44:24;20.75;;;2.78;;
34489;SDS011;20730;49.372;7.324;2023-12-22T09:47:08;21.58;;;3.22;;
34489;SDS011;20730;49.372;7.324;2023-12-22T09:50:10;22.02;;;2.58;;
34489;SDS011;20730;49.372;7.324;2023-12-22T09:52:51;15.43;;;2.58;;
34489;SDS011;20730;49.372;7.324;2023-12-22T09:55:27;21.88;;;3.08;;
34489;SDS011;20730;49.372;7.324;2023-12-22T09:58:40;20.83;;;2.78;;
34489;SDS011;20730;49.372;7.324;2023-12-22T10:01:46;19.10;;;2.90;;
34489;SDS011;20730;49.372;7.324;2023-12-22T10:04:51;16.55;;;2.97;;
34489;SDS011;20730;49.372;7.324;2023-12-22T10:07:36;18.25;;;2.40;;
34489;SDS011;20730;49.372;7.324;2023-12-22T10:10:22;19.17;;;2.85;;
34489;SDS011;20730;49.372;7.324;2023-12-22T10:13:21;19.70;;;2.88;;
34489;SDS011;20730;49.372;7.324;2023-12-22T10:16:25;16.08;;;2.67;;
34489;SDS011;20730;49.372;7.324;2023-12-22T10:22:15;11.50;;;2.45;;
34489;SDS011;20730;49.372;7.324;2023-12-22T10:28:10;16.92;;;2.33;;
34489;SDS011;20730;49.372;7.324;2023-12-22T10:30:50;14.07;;;2.75;;
34489;SDS011;20730;49.372;7.324;2023-12-22T10:33:23;15.15;;;2.50;;
34489;SDS011;20730;49.372;7.324;2023-12-22T10:36:28;9.38;;;2.10;;
34489;SDS011;20730;49.372;7.324;2023-12-22T10:39:07;11.63;;;2.22;;
34489;SDS011;20730;49.372;7.324;2023-12-22T10:41:58;10.27;;;1.98;;
34489;SDS011;20730;49.372;7.324;2023-12-22T10:48:02;11.23;;;1.85;;
34489;SDS011;20730;49.372;7.324;2023-12-22T10:50:46;15.20;;;1.80;;
34489;SDS011;20730;49.372;7.324;2023-12-22T10:53:34;9.18;;;1.75;;
34489;SDS011;20730;49.372;7.324;2023-12-22T10:56:27;8.73;;;1.77;;
34489;SDS011;20730;49.372;7.324;2023-12-22T10:59:19;5.20;;;1.40;;
34489;SDS011;20730;49.372;7.324;2023-12-22T11:02:06;5.97;;;1.70;;
34489;SDS011;20730;49.372;7.324;2023-12-22T11:07:46;8.05;;;1.63;;
34489;SDS011;20730;49.372;7.324;2023-12-22T11:10:32;8.13;;;1.85;;
34489;SDS011;20730;49.372;7.324;2023-12-22T11:13:15;10.02;;;2.00;;
34489;SDS011;20730;49.372;7.324;2023-12-22T11:16:03;5.95;;;1.42;;
34489;SDS011;20730;49.372;7.324;2023-12-22T11:18:32;8.00;;;1.52;;
34489;SDS011;20730;49.372;7.324;2023-12-22T11:21:12;11.00;;;1.42;;
34489;SDS011;20730;49.372;7.324;2023-12-22T11:24:03;5.63;;;1.20;;
34489;SDS011;20730;49.372;7.324;2023-12-22T11:26:49;4.05;;;1.30;;
34489;SDS011;20730;49.372;7.324;2023-12-22T11:29:51;4.93;;;0.80;;
34489;SDS011;20730;49.372;7.324;2023-12-22T11:32:53;3.88;;;1.20;;
34489;SDS011;20730;49.372;7.324;2023-12-22T11:35:50;2.80;;;0.80;;
34489;SDS011;20730;49.372;7.324;2023-12-22T11:38:27;2.47;;;1.20;;
34489;SDS011;20730;49.372;7.324;2023-12-22T11:41:14;2.95;;;0.77;;
34489;SDS011;20730;49.372;7.324;2023-12-22T11:44:07;0.82;;;0.40;;
34489;SDS011;20730;49.372;7.324;2023-12-22T11:47:04;4.13;;;1.27;;
34489;SDS011;20730;49.372;7.324;2023-12-22T11:49:48;2.55;;;1.20;;
34489;SDS011;20730;49.372;7.324;2023-12-22T11:52:34;1.25;;;1.08;;
34489;SDS011;20730;49.372;7.324;2023-12-22T11:55:11;1.42;;;0.88;;
34489;SDS011;20730;49.372;7.324;2023-12-22T11:58:33;2.53;;;0.70;;
34489;SDS011;20730;49.372;7.324;2023-12-22T12:01:12;1.15;;;0.75;;
34489;SDS011;20730;49.372;7.324;2023-12-22T12:03:59;2.70;;;0.90;;
34489;SDS011;20730;49.372;7.324;2023-12-22T12:06:39;2.15;;;0.80;;
34489;SDS011;20730;49.372;7.324;2023-12-22T12:13:05;2.17;;;0.70;;
34489;SDS011;20730;49.372;7.324;2023-12-22T12:15:45;1.80;;;0.77;;
34489;SDS011;20730;49.372;7.324;2023-12-22T12:18:45;1.52;;;0.77;;
34489;SDS011;20730;49.372;7.324;2023-12-22T12:21:43;3.55;;;0.35;;
34489;SDS011;20730;49.372;7.324;2023-12-22T12:24:43;3.45;;;0.70;;
34489;SDS011;20730;49.372;7.324;2023-12-22T12:27:30;1.90;;;0.50;;
34489;SDS011;20730;49.372;7.324;2023-12-22T12:30:36;1.00;;;0.47;;
34489;SDS011;20730;49.372;7.324;2023-12-22T12:33:18;2.70;;;0.75;;
34489;SDS011;20730;49.372;7.324;2023-12-22T12:36:14;1.20;;;0.30;;
34489;SDS011;20730;49.372;7.324;2023-12-22T12:39:19;1.33;;;0.40;;
34489;SDS011;20730;49.372;7.324;2023-12-22T12:42:19;2.25;;;0.73;;
34489;SDS011;20730;49.372;7.324;2023-12-22T12:45:05;0.90;;;0.30;;
34489;SDS011;20730;49.372;7.324;2023-12-22T12:47:41;0.95;;;0.50;;
34489;SDS011;20730;49.372;7.324;2023-12-22T12:53:41;0.55;;;0.20;;
34489;SDS011;20730;49.372;7.324;2023-12-22T12:56:29;0.70;;;0.32;;
34489;SDS011;20730;49.372;7.324;2023-12-22T12:59:16;1.55;;;0.30;;
34489;SDS011;20730;49.372;7.324;2023-12-22T13:01:58;0.93;;;0.40;;
34489;SDS011;20730;49.372;7.324;2023-12-22T13:04:46;0.30;;;0.30;;
34489;SDS011;20730;49.372;7.324;2023-12-22T13:07:33;1.27;;;0.60;;
34489;SDS011;20730;49.372;7.324;2023-12-22T13:10:23;0.70;;;0.30;;
34489;SDS011;20730;49.372;7.324;2023-12-22T13:13:04;0.57;;;0.47;;
34489;SDS011;20730;49.372;7.324;2023-12-22T13:15:43;0.30;;;0.30;;
34489;SDS011;20730;49.372;7.324;2023-12-22T13:18:44;1.23;;;0.40;;
34489;SDS011;20730;49.372;7.324;2023-12-22T13:21:15;0.75;;;0.40;;
34489;SDS011;20730;49.372;7.324;2023-12-22T13:26:43;1.88;;;0.30;;
34489;SDS011;20730;49.372;7.324;2023-12-22T13:29:46;1.80;;;0.50;;
34489;SDS011;20730;49.372;7.324;2023-12-22T13:32:34;2.30;;;0.45;;
34489;SDS011;20730;49.372;7.324;2023-12-22T13:35:36;3.05;;;0.45;;
34489;SDS011;20730;49.372;7.324;2023-12-22T13:38:32;2.35;;;0.52;;
34489;SDS011;20730;49.372;7.324;2023-12-22T13:41:25;1.75;;;0.70;;
34489;SDS011;20730;49.372;7.324;2023-12-22T13:44:41;2.17;;;0.60;;
34489;SDS011;20730;49.372;7.324;2023-12-22T13:47:22;2.45;;;0.77;;
34489;SDS011;20730;49.372;7.324;2023-12-22T13:50:01;0.75;;;0.40;;
34489;SDS011;20730;49.372;7.324;2023-12-22T13:52:35;2.65;;;0.47;;
34489;SDS011;20730;49.372;7.324;2023-12-22T13:55:45;1.23;;;0.50;;
34489;SDS011;20730;49.372;7.324;2023-12-22T13:58:51;3.58;;;0.50;;
34489;SDS011;20730;49.372;7.324;2023-12-22T14:01:45;2.03;;;0.47;;
34489;SDS011;20730;49.372;7.324;2023-12-22T14:04:32;2.00;;;0.50;;
34489;SDS011;20730;49.372;7.324;2023-12-22T14:10:10;0.50;;;0.35;;
34489;SDS011;20730;49.372;7.324;2023-12-22T14:13:08;0.53;;;0.50;;
34489;SDS011;20730;49.372;7.324;2023-12-22T14:16:05;3.13;;;0.50;;
34489;SDS011;20730;49.372;7.324;2023-12-22T14:18:49;0.45;;;0.40;;
34489;SDS011;20730;49.372;7.324;2023-12-22T14:21:27;0.40;;;0.28;;
34489;SDS011;20730;49.372;7.324;2023-12-22T14:24:24;0.93;;;0.43;;
34489;SDS011;20730;49.372;7.324;2023-12-22T14:27:25;1.42;;;0.38;;
34489;SDS011;20730;49.372;7.324;2023-12-22T14:30:19;2.88;;;0.50;;
34489;SDS011;20730;49.372;7.324;2023-12-22T14:33:03;2.17;;;0.40;;
34489;SDS011;20730;49.372;7.324;2023-12-22T14:35:57;2.28;;;0.55;;
34489;SDS011;20730;49.372;7.324;2023-12-22T14:38:45;1.60;;;0.55;;
34489;SDS011;20730;49.372;7.324;2023-12-22T14:41:41;2.65;;;0.60;;
34489;SDS011;20730;49.372;7.324;2023-12-22T14:44:45;0.60;;;0.35;;
34489;SDS011;20730;49.372;7.324;2023-12-22T14:47:25;1.40;;;0.45;;
34489;SDS011;20730;49.372;7.324;2023-12-22T14:50:00;0.95;;;0.32;;
34489;SDS011;20730;49.372;7.324;2023-12-22T14:52:36;0.77;;;0.30;;
34489;SDS011;20730;49.372;7.324;2023-12-22T14:55:55;1.13;;;0.30;;
34489;SDS011;20730;49.372;7.324;2023-12-22T14:58:32;1.25;;;0.40;;
34489;SDS011;20730;49.372;7.324;2023-12-22T15:01:12;2.25;;;0.43;;
34489;SDS011;20730;49.372;7.324;2023-12-22T15:04:01;1.10;;;0.43;;
34489;SDS011;20730;49.372;7.324;2023-12-22T15:06:45;0.75;;;0.30;;
34489;SDS011;20730;49.372;7.324;2023-12-22T15:09:44;2.88;;;0.50;;
34489;SDS011;20730;49.372;7.324;2023-12-22T15:12:25;2.13;;;0.75;;
34489;SDS011;20730;49.372;7.324;2023-12-22T15:15:12;9.50;;;4.70;;
34489;SDS011;20730;49.372;7.324;2023-12-22T15:17:57;1.10;;;0.80;;
34489;SDS011;20730;49.372;7.324;2023-12-22T15:20:48;1.17;;;0.47;;
34489;SDS011;20730;49.372;7.324;2023-12-22T15:23:32;0.85;;;0.40;;
34489;SDS011;20730;49.372;7.324;2023-12-22T15:26:24;1.50;;;0.40;;
34489;SDS011;20730;49.372;7.324;2023-12-22T15:29:08;1.27;;;0.43;;
34489;SDS011;20730;49.372;7.324;2023-12-22T15:31:46;1.30;;;0.52;;
34489;SDS011;20730;49.372;7.324;2023-12-22T15:34:24;0.80;;;0.40;;
34489;SDS011;20730;49.372;7.324;2023-12-22T15:37:10;0.80;;;0.30;;
34489;SDS011;20730;49.372;7.324;2023-12-22T15:39:47;1.20;;;0.30;;
34489;SDS011;20730;49.372;7.324;2023-12-22T15:42:27;0.90;;;0.30;;
34489;SDS011;20730;49.372;7.324;2023-12-22T15:45:01;1.05;;;0.32;;
34489;SDS011;20730;49.372;7.324;2023-12-22T15:47:38;0.75;;;0.20;;
34489;SDS011;20730;49.372;7.324;2023-12-22T15:50:34;2.35;;;0.55;;
34489;SDS011;20730;49.372;7.324;2023-12-22T15:53:14;1.25;;;0.28;;
34489;SDS011;20730;49.372;7.324;2023-12-22T15:56:09;0.60;;;0.40;;
34489;SDS011;20730;49.372;7.324;2023-12-22T15:58:52;3.75;;;0.40;;
34489;SDS011;20730;49.372;7.324;2023-12-22T16:04:37;0.45;;;0.45;;
34489;SDS011;20730;49.372;7.324;2023-12-22T16:07:15;1.15;;;0.22;;
34489;SDS011;20730;49.372;7.324;2023-12-22T16:10:04;0.60;;;0.22;;
34489;SDS011;20730;49.372;7.324;2023-12-22T16:12:45;1.13;;;0.50;;
34489;SDS011;20730;49.372;7.324;2023-12-22T16:15:18;0.85;;;0.30;;
34489;SDS011;20730;49.372;7.324;2023-12-22T16:17:58;1.65;;;0.40;;
34489;SDS011;20730;49.372;7.324;2023-12-22T16:20:46;0.70;;;0.43;;
34489;SDS011;20730;49.372;7.324;2023-12-22T16:23:53;0.40;;;0.40;;
34489;SDS011;20730;49.372;7.324;2023-12-22T16:26:37;1.25;;;0.50;;
34489;SDS011;20730;49.372;7.324;2023-12-22T16:29:25;1.23;;;0.40;;
34489;SDS011;20730;49.372;7.324;2023-12-22T16:32:17;1.00;;;0.47;;
34489;SDS011;20730;49.372;7.324;2023-12-22T16:35:05;0.63;;;0.30;;
34489;SDS011;20730;49.372;7.324;2023-12-22T16:37:44;0.88;;;0.45;;
34489;SDS011;20730;49.372;7.324;2023-12-22T16:40:27;2.85;;;0.50;;
34489;SDS011;20730;49.372;7.324;2023-12-22T16:43:13;0.70;;;0.25;;
34489;SDS011;20730;49.372;7.324;2023-12-22T16:45:59;0.50;;;0.30;;
34489;SDS011;20730;49.372;7.324;2023-12-22T16:48:48;0.80;;;0.40;;
34489;SDS011;20730;49.372;7.324;2023-12-22T16:51:28;1.08;;;0.32;;
34489;SDS011;20730;49.372;7.324;2023-12-22T16:54:08;0.20;;;0.20;;
34489;SDS011;20730;49.372;7.324;2023-12-22T16:56:48;1.08;;;0.40;;
34489;SDS011;20730;49.372;7.324;2023-12-22T16:59:39;2.30;;;0.30;;
34489;SDS011;20730;49.372;7.324;2023-12-22T17:02:15;0.65;;;0.38;;
34489;SDS011;20730;49.372;7.324;2023-12-22T17:05:27;6.30;;;0.60;;
34489;SDS011;20730;49.372;7.324;2023-12-22T17:08:12;1.15;;;0.28;;
34489;SDS011;20730;49.372;7.324;2023-12-22T17:11:21;1.40;;;0.70;;
34489;SDS011;20730;49.372;7.324;2023-12-22T17:14:00;1.10;;;0.45;;
34489;SDS011;20730;49.372;7.324;2023-12-22T17:16:55;2.72;;;1.15;;
34489;SDS011;20730;49.372;7.324;2023-12-22T17:22:16;1.17;;;0.80;;
34489;SDS011;20730;49.372;7.324;2023-12-22T17:24:59;0.43;;;0.40;;
34489;SDS011;20730;49.372;7.324;2023-12-22T17:27:38;2.03;;;0.73;;
34489;SDS011;20730;49.372;7.324;2023-12-22T17:30:19;1.55;;;0.60;;
34489;SDS011;20730;49.372;7.324;2023-12-22T17:33:05;3.13;;;0.95;;
34489;SDS011;20730;49.372;7.324;2023-12-22T17:35:44;1.30;;;0.60;;
34489;SDS011;20730;49.372;7.324;2023-12-22T17:38:21;1.45;;;0.55;;
34489;SDS011;20730;49.372;7.324;2023-12-22T17:41:14;2.60;;;0.80;;
34489;SDS011;20730;49.372;7.324;2023-12-22T17:43:52;0.90;;;0.70;;
34489;SDS011;20730;49.372;7.324;2023-12-22T17:46:33;1.33;;;0.60;;